createdAt,value
2017-01-05T00:00:00.873Z,0
2017-01-05T00:01:00.910Z,0
2017-01-05T00:02:00.925Z,0
2017-01-05T00:03:00.733Z,0
2017-01-05T00:04:00.738Z,0
2017-01-05T00:05:01.172Z,0
2017-01-05T00:06:00.673Z,0
2017-01-05T00:07:01.244Z,0
2017-01-05T00:08:00.797Z,0
2017-01-05T00:09:00.626Z,0
2017-01-05T00:10:01.027Z,0
2017-01-05T00:11:00.582Z,0
2017-01-05T00:12:00.562Z,0
2017-01-05T00:13:01.558Z,0
2017-01-05T00:14:00.866Z,0
2017-01-05T00:15:01.276Z,0
2017-01-05T00:16:01.407Z,0
2017-01-05T00:17:01.592Z,0
2017-01-05T00:18:01.305Z,0
2017-01-05T00:19:00.438Z,0
2017-01-05T00:20:00.442Z,0
2017-01-05T00:21:00.591Z,0
2017-01-05T00:22:00.363Z,0
2017-01-05T00:23:00.508Z,0
2017-01-05T00:24:00.324Z,0
2017-01-05T00:25:00.662Z,0
2017-01-05T00:26:00.280Z,0
2017-01-05T00:27:00.853Z,0
2017-01-05T00:28:00.627Z,0
2017-01-05T00:29:00.364Z,0
2017-01-05T00:30:01.000Z,0
2017-01-05T00:31:00.183Z,0
2017-01-05T00:32:01.210Z,0
2017-01-05T00:33:00.547Z,0
2017-01-05T00:34:00.126Z,0
2017-01-05T00:35:00.914Z,0
2017-01-05T00:36:00.092Z,0
2017-01-05T00:37:00.711Z,0
2017-01-05T00:38:00.049Z,0
2017-01-05T00:39:00.157Z,0
2017-01-05T00:40:00.399Z,0
2017-01-05T00:40:59.984Z,0
2017-01-05T00:42:00.023Z,0
2017-01-05T00:43:00.420Z,0
2017-01-05T00:43:59.925Z,0
2017-01-05T00:44:59.910Z,0
2017-01-05T00:46:00.071Z,0
2017-01-05T00:46:59.867Z,0
2017-01-05T00:48:00.773Z,0
2017-01-05T00:48:59.827Z,0
2017-01-05T00:50:00.066Z,0
2017-01-05T00:50:59.793Z,0
2017-01-05T00:51:59.766Z,0
2017-01-05T00:52:59.753Z,0
2017-01-05T00:54:00.812Z,0
2017-01-05T00:54:59.713Z,0
2017-01-05T00:55:59.684Z,0
2017-01-05T00:57:00.480Z,0
2017-01-05T00:57:59.655Z,0
2017-01-05T00:58:59.627Z,0
2017-01-05T01:00:00.409Z,0
2017-01-05T01:00:59.589Z,0
2017-01-05T01:01:59.577Z,0
2017-01-05T01:02:59.551Z,0
2017-01-05T01:04:00.515Z,0
2017-01-05T01:04:59.508Z,0
2017-01-05T01:05:59.496Z,0
2017-01-05T01:07:00.817Z,0
2017-01-05T01:07:59.452Z,0
2017-01-05T01:08:59.430Z,0
2017-01-05T01:09:59.408Z,0
2017-01-05T01:10:59.420Z,0
2017-01-05T01:11:59.490Z,0
2017-01-05T01:12:59.375Z,0
2017-01-05T01:13:59.334Z,0
2017-01-05T01:14:59.309Z,0
2017-01-05T01:15:59.541Z,0
2017-01-05T01:16:59.269Z,0
2017-01-05T01:17:59.743Z,0
2017-01-05T01:18:59.226Z,0
2017-01-05T01:19:59.235Z,0
2017-01-05T01:20:59.270Z,0
2017-01-05T01:21:59.177Z,0
2017-01-05T01:22:59.304Z,0
2017-01-05T01:23:59.131Z,0
2017-01-05T01:24:59.114Z,0
2017-01-05T01:25:59.262Z,0
2017-01-05T01:26:59.157Z,0
2017-01-05T01:27:59.051Z,0
2017-01-05T01:28:59.029Z,0
2017-01-05T01:29:59.020Z,0
2017-01-05T01:30:58.983Z,0
2017-01-05T01:31:59.369Z,0
2017-01-05T01:32:58.978Z,0
2017-01-05T01:33:58.962Z,0
2017-01-05T01:34:58.995Z,0
2017-01-05T01:35:59.003Z,0
2017-01-05T01:36:59.117Z,0
2017-01-05T01:37:59.065Z,0
2017-01-05T01:38:59.329Z,0
2017-01-05T01:39:58.850Z,0
2017-01-05T01:40:58.880Z,0
2017-01-05T01:41:58.784Z,0
2017-01-05T01:42:58.879Z,0
2017-01-05T01:43:58.852Z,0
2017-01-05T01:44:58.764Z,0
2017-01-05T01:45:58.974Z,0
2017-01-05T01:46:58.700Z,0
2017-01-05T01:47:58.659Z,0
2017-01-05T01:48:58.992Z,0
2017-01-05T01:49:59.040Z,0
2017-01-05T01:50:58.893Z,0
2017-01-05T01:51:58.569Z,0
2017-01-05T01:52:58.549Z,0
2017-01-05T01:53:58.529Z,0
2017-01-05T01:54:59.710Z,0
2017-01-05T01:55:58.490Z,0
2017-01-05T01:56:58.472Z,0
2017-01-05T01:57:59.748Z,0
2017-01-05T01:58:58.477Z,0
2017-01-05T01:59:59.215Z,0
2017-01-05T02:00:58.391Z,0
2017-01-05T02:01:58.370Z,0
2017-01-05T02:02:58.648Z,0
2017-01-05T02:03:58.324Z,0
2017-01-05T02:04:58.310Z,0
2017-01-05T02:05:58.288Z,0
2017-01-05T02:06:58.273Z,0
2017-01-05T02:07:58.246Z,0
2017-01-05T02:08:58.260Z,0
2017-01-05T02:09:59.063Z,0
2017-01-05T02:10:58.186Z,0
2017-01-05T02:11:58.175Z,0
2017-01-05T02:12:58.432Z,0
2017-01-05T02:13:58.622Z,0
2017-01-05T02:14:58.111Z,0
2017-01-05T02:15:58.089Z,0
2017-01-05T02:16:58.068Z,0
2017-01-05T02:17:59.169Z,0
2017-01-05T02:18:58.805Z,0
2017-01-05T02:19:58.008Z,0
2017-01-05T02:20:58.371Z,0
2017-01-05T02:21:57.969Z,0
2017-01-05T02:22:57.950Z,0
2017-01-05T02:23:58.086Z,0
2017-01-05T02:24:58.383Z,0
2017-01-05T02:25:57.887Z,0
2017-01-05T02:26:59.214Z,0
2017-01-05T02:27:57.867Z,0
2017-01-05T02:28:58.512Z,0
2017-01-05T02:29:57.808Z,0
2017-01-05T02:30:58.037Z,0
2017-01-05T02:31:57.761Z,0
2017-01-05T02:32:57.839Z,0
2017-01-05T02:33:57.726Z,0
2017-01-05T02:34:57.734Z,0
2017-01-05T02:35:57.681Z,0
2017-01-05T02:36:57.662Z,0
2017-01-05T02:37:57.646Z,0
2017-01-05T02:38:57.653Z,0
2017-01-05T02:39:57.608Z,0
2017-01-05T02:40:57.580Z,0
2017-01-05T02:41:57.568Z,0
2017-01-05T02:42:57.542Z,0
2017-01-05T02:43:57.521Z,0
2017-01-05T02:44:57.504Z,0
2017-01-05T02:45:57.484Z,0
2017-01-05T02:46:57.464Z,0
2017-01-05T02:47:57.470Z,0
2017-01-05T02:48:57.421Z,0
2017-01-05T02:49:57.403Z,0
2017-01-05T02:50:57.380Z,0
2017-01-05T02:52:29.437Z,0
2017-01-05T02:52:57.347Z,0
2017-01-05T02:53:57.325Z,0
2017-01-05T02:54:57.302Z,0
2017-01-05T02:55:57.279Z,0
2017-01-05T02:56:57.262Z,0
2017-01-05T02:57:57.241Z,0
2017-01-05T02:58:57.223Z,0
2017-01-05T02:59:57.202Z,0
2017-01-05T03:00:57.195Z,0
2017-01-05T03:01:57.165Z,0
2017-01-05T03:02:57.144Z,0
2017-01-05T03:03:57.556Z,0
2017-01-05T03:04:57.105Z,0
2017-01-05T03:05:57.101Z,0
2017-01-05T03:06:57.060Z,0
2017-01-05T03:07:57.050Z,0
2017-01-05T03:08:57.023Z,0
2017-01-05T03:09:57.002Z,0
2017-01-05T03:10:56.982Z,0
2017-01-05T03:11:56.964Z,0
2017-01-05T03:12:56.943Z,0
2017-01-05T03:13:56.923Z,0
2017-01-05T03:14:56.907Z,0
2017-01-05T03:15:56.881Z,0
2017-01-05T03:16:56.863Z,0
2017-01-05T03:17:56.842Z,0
2017-01-05T03:18:56.831Z,0
2017-01-05T03:19:56.800Z,0
2017-01-05T03:20:56.783Z,0
2017-01-05T03:21:56.804Z,0
2017-01-05T03:22:56.746Z,0
2017-01-05T03:23:56.728Z,0
2017-01-05T03:24:56.699Z,0
2017-01-05T03:25:56.680Z,0
2017-01-05T03:26:56.668Z,0
2017-01-05T03:27:56.639Z,0
2017-01-05T03:28:56.621Z,0
2017-01-05T03:29:56.599Z,0
2017-01-05T03:30:56.582Z,0
2017-01-05T03:31:56.565Z,0
2017-01-05T03:32:56.576Z,0
2017-01-05T03:33:56.526Z,0
2017-01-05T03:34:56.509Z,0
2017-01-05T03:35:56.479Z,0
2017-01-05T03:36:56.462Z,0
2017-01-05T03:37:56.438Z,0
2017-01-05T03:38:56.426Z,0
2017-01-05T03:39:56.404Z,0
2017-01-05T03:40:56.379Z,0
2017-01-05T03:41:56.360Z,0
2017-01-05T03:42:56.341Z,0
2017-01-05T03:43:56.330Z,0
2017-01-05T03:44:56.303Z,0
2017-01-05T03:45:56.283Z,0
2017-01-05T03:46:56.264Z,0
2017-01-05T03:47:56.244Z,0
2017-01-05T03:48:56.221Z,0
2017-01-05T03:49:56.203Z,0
2017-01-05T03:50:56.180Z,0
2017-01-05T03:51:56.163Z,0
2017-01-05T03:52:56.141Z,0
2017-01-05T03:53:56.116Z,0
2017-01-05T03:54:56.094Z,0
2017-01-05T03:55:56.081Z,0
2017-01-05T03:56:56.057Z,0
2017-01-05T03:57:56.043Z,0
2017-01-05T03:58:56.019Z,0
2017-01-05T03:59:55.997Z,0
2017-01-05T04:00:55.988Z,0
2017-01-05T04:01:55.960Z,0
2017-01-05T04:02:55.945Z,0
2017-01-05T04:03:55.920Z,0
2017-01-05T04:04:55.907Z,0
2017-01-05T04:05:55.878Z,0
2017-01-05T04:06:55.862Z,0
2017-01-05T04:07:55.841Z,0
2017-01-05T04:08:55.825Z,0
2017-01-05T04:09:55.804Z,0
2017-01-05T04:10:55.780Z,0
2017-01-05T04:11:55.763Z,0
2017-01-05T04:12:55.747Z,0
2017-01-05T04:13:55.719Z,0
2017-01-05T04:14:55.698Z,0
2017-01-05T04:15:55.680Z,0
2017-01-05T04:16:56.060Z,0
2017-01-05T04:17:55.640Z,0
2017-01-05T04:18:55.620Z,0
2017-01-05T04:19:55.613Z,0
2017-01-05T04:20:55.582Z,0
2017-01-05T04:21:55.566Z,0
2017-01-05T04:22:55.541Z,0
2017-01-05T04:23:55.563Z,0
2017-01-05T04:24:55.526Z,0
2017-01-05T04:25:55.484Z,0
2017-01-05T04:26:55.461Z,0
2017-01-05T04:27:55.444Z,0
2017-01-05T04:28:55.424Z,0
2017-01-05T04:29:55.399Z,0
2017-01-05T04:30:55.408Z,0
2017-01-05T04:31:55.363Z,0
2017-01-05T04:32:55.344Z,0
2017-01-05T04:33:55.323Z,0
2017-01-05T04:34:55.305Z,0
2017-01-05T04:35:56.108Z,0
2017-01-05T04:36:55.261Z,0
2017-01-05T04:37:55.239Z,0
2017-01-05T04:38:55.221Z,0
2017-01-05T04:39:55.204Z,0
2017-01-05T04:40:55.183Z,0
2017-01-05T04:41:55.164Z,0
2017-01-05T04:42:55.142Z,0
2017-01-05T04:43:55.124Z,0
2017-01-05T04:44:55.110Z,0
2017-01-05T04:45:55.080Z,0
2017-01-05T04:46:55.066Z,0
2017-01-05T04:47:55.070Z,0
2017-01-05T04:48:55.024Z,0
2017-01-05T04:49:55.009Z,0
2017-01-05T04:50:54.982Z,0
2017-01-05T04:51:54.964Z,0
2017-01-05T04:52:54.942Z,0
2017-01-05T04:53:54.924Z,0
2017-01-05T04:54:54.904Z,0
2017-01-05T04:55:54.889Z,0
2017-01-05T04:56:54.861Z,0
2017-01-05T04:57:55.248Z,0
2017-01-05T04:58:54.823Z,0
2017-01-05T04:59:54.811Z,0
2017-01-05T05:00:54.784Z,0
2017-01-05T05:01:54.770Z,0
2017-01-05T05:02:54.754Z,0
2017-01-05T05:03:54.724Z,0
2017-01-05T05:04:54.709Z,0
2017-01-05T05:05:54.689Z,0
2017-01-05T05:06:54.663Z,0
2017-01-05T05:07:54.648Z,0
2017-01-05T05:08:54.624Z,0
2017-01-05T05:09:54.603Z,0
2017-01-05T05:10:54.584Z,0
2017-01-05T05:11:54.561Z,0
2017-01-05T05:12:54.546Z,0
2017-01-05T05:13:54.524Z,0
2017-01-05T05:14:54.505Z,0
2017-01-05T05:15:54.488Z,0
2017-01-05T05:16:54.489Z,0
2017-01-05T05:17:54.444Z,0
2017-01-05T05:18:54.428Z,0
2017-01-05T05:19:54.406Z,0
2017-01-05T05:20:54.384Z,0
2017-01-05T05:21:54.367Z,0
2017-01-05T05:22:54.374Z,0
2017-01-05T05:23:54.323Z,0
2017-01-05T05:24:54.307Z,0
2017-01-05T05:25:54.288Z,0
2017-01-05T05:26:54.267Z,0
2017-01-05T05:27:54.248Z,0
2017-01-05T05:28:54.228Z,0
2017-01-05T05:29:54.203Z,0
2017-01-05T05:30:54.183Z,0
2017-01-05T05:31:54.163Z,0
2017-01-05T05:32:54.154Z,0
2017-01-05T05:33:54.130Z,0
2017-01-05T05:34:54.102Z,0
2017-01-05T05:35:54.083Z,0
2017-01-05T05:36:54.067Z,0
2017-01-05T05:37:54.054Z,0
2017-01-05T05:38:54.028Z,0
2017-01-05T05:39:54.007Z,0
2017-01-05T05:40:53.989Z,0
2017-01-05T05:41:53.967Z,0
2017-01-05T05:42:53.950Z,0
2017-01-05T05:43:53.924Z,0
2017-01-05T05:44:53.909Z,0
2017-01-05T05:45:53.882Z,0
2017-01-05T05:46:53.865Z,0
2017-01-05T05:47:53.843Z,0
2017-01-05T05:48:53.827Z,0
2017-01-05T05:49:53.810Z,0
2017-01-05T05:50:53.788Z,0
2017-01-05T05:51:53.766Z,0
2017-01-05T05:52:53.749Z,0
2017-01-05T05:53:53.722Z,0
2017-01-05T05:54:53.710Z,0
2017-01-05T05:55:53.685Z,0
2017-01-05T05:56:53.672Z,0
2017-01-05T05:57:53.650Z,0
2017-01-05T05:58:53.626Z,0
2017-01-05T05:59:53.609Z,0
2017-01-05T06:00:53.581Z,0
2017-01-05T06:01:53.566Z,0
2017-01-05T06:02:53.947Z,0
2017-01-05T06:03:53.534Z,0
2017-01-05T06:04:53.529Z,0
2017-01-05T06:05:53.489Z,0
2017-01-05T06:06:53.472Z,0
2017-01-05T06:07:53.444Z,0
2017-01-05T06:08:53.433Z,0
2017-01-05T06:09:53.407Z,0
2017-01-05T06:10:53.385Z,0
2017-01-05T06:11:53.364Z,0
2017-01-05T06:12:53.347Z,0
2017-01-05T06:13:53.323Z,0
2017-01-05T06:14:53.304Z,0
2017-01-05T06:15:53.283Z,0
2017-01-05T06:16:53.264Z,0
2017-01-05T06:17:53.247Z,0
2017-01-05T06:18:53.619Z,0
2017-01-05T06:19:53.206Z,0
2017-01-05T06:20:53.183Z,0
2017-01-05T06:21:53.171Z,0
2017-01-05T06:22:53.142Z,0
2017-01-05T06:23:53.128Z,0
2017-01-05T06:24:53.096Z,0
2017-01-05T06:25:53.103Z,0
2017-01-05T06:26:53.064Z,0
2017-01-05T06:27:53.038Z,0
2017-01-05T06:28:53.018Z,0
2017-01-05T06:29:53.004Z,0
2017-01-05T06:30:52.979Z,0
2017-01-05T06:31:52.957Z,0
2017-01-05T06:32:52.934Z,0
2017-01-05T06:33:52.914Z,0
2017-01-05T06:34:52.895Z,0
2017-01-05T06:35:52.878Z,0
2017-01-05T06:36:52.855Z,0
2017-01-05T06:37:52.839Z,0
2017-01-05T06:38:52.817Z,0
2017-01-05T06:39:52.792Z,0
2017-01-05T06:40:52.778Z,0
2017-01-05T06:41:52.755Z,0
2017-01-05T06:42:52.733Z,0
2017-01-05T06:43:52.714Z,0
2017-01-05T06:44:52.700Z,0
2017-01-05T06:45:52.681Z,0
2017-01-05T06:46:52.653Z,0
2017-01-05T06:47:52.647Z,0
2017-01-05T06:48:52.612Z,0
2017-01-05T06:49:52.598Z,0
2017-01-05T06:50:52.573Z,0
2017-01-05T06:51:52.654Z,0
2017-01-05T06:52:52.530Z,0
2017-01-05T06:53:52.513Z,0
2017-01-05T06:54:52.501Z,0
2017-01-05T06:55:52.471Z,0
2017-01-05T06:56:52.451Z,0
2017-01-05T06:57:52.433Z,0
2017-01-05T06:58:52.421Z,0
2017-01-05T06:59:52.392Z,0
2017-01-05T07:00:52.368Z,0
2017-01-05T07:01:52.348Z,0
2017-01-05T07:02:52.326Z,0
2017-01-05T07:03:52.310Z,0
2017-01-05T07:04:52.285Z,0
2017-01-05T07:05:52.267Z,0
2017-01-05T07:06:52.252Z,0
2017-01-05T07:07:52.228Z,0
2017-01-05T07:08:52.205Z,0
2017-01-05T07:09:52.192Z,0
2017-01-05T07:10:52.169Z,0
2017-01-05T07:11:52.147Z,0
2017-01-05T07:12:52.129Z,0
2017-01-05T07:13:52.104Z,0
2017-01-05T07:14:52.082Z,5
2017-01-05T07:15:52.064Z,5
2017-01-05T07:16:52.055Z,5
2017-01-05T07:17:52.026Z,5
2017-01-05T07:18:52.005Z,5
2017-01-05T07:19:51.988Z,5
2017-01-05T07:20:51.965Z,5
2017-01-05T07:21:51.944Z,5
2017-01-05T07:22:51.928Z,5
2017-01-05T07:23:51.907Z,5
2017-01-05T07:24:51.880Z,5
2017-01-05T07:25:51.865Z,5
2017-01-05T07:26:51.847Z,5
2017-01-05T07:27:51.834Z,5
2017-01-05T07:28:51.800Z,5
2017-01-05T07:29:51.783Z,5
2017-01-05T07:30:51.763Z,5
2017-01-05T07:31:51.764Z,5
2017-01-05T07:32:51.721Z,10
2017-01-05T07:33:51.701Z,10
2017-01-05T07:34:51.683Z,10
2017-01-05T07:35:51.678Z,10
2017-01-05T07:36:52.036Z,10
2017-01-05T07:37:51.623Z,15
2017-01-05T07:38:51.604Z,15
2017-01-05T07:39:51.580Z,15
2017-01-05T07:40:51.561Z,15
2017-01-05T07:41:51.541Z,15
2017-01-05T07:42:51.526Z,10
2017-01-05T07:43:51.501Z,10
2017-01-05T07:44:51.480Z,10
2017-01-05T07:45:51.462Z,10
2017-01-05T07:46:51.441Z,10
2017-01-05T07:47:51.428Z,10
2017-01-05T07:48:51.426Z,10
2017-01-05T07:49:51.381Z,10
2017-01-05T07:50:51.353Z,10
2017-01-05T07:51:51.342Z,15
2017-01-05T07:52:51.321Z,15
2017-01-05T07:53:51.297Z,15
2017-01-05T07:54:51.274Z,15
2017-01-05T07:55:51.256Z,15
2017-01-05T07:56:51.245Z,15
2017-01-05T07:57:51.222Z,15
2017-01-05T07:58:51.210Z,15
2017-01-05T07:59:51.176Z,15
2017-01-05T08:00:51.159Z,15
2017-01-05T08:01:51.134Z,20
2017-01-05T08:02:51.118Z,25
2017-01-05T08:03:51.098Z,30
2017-01-05T08:04:51.078Z,35
2017-01-05T08:05:51.060Z,35
2017-01-05T08:06:51.042Z,40
2017-01-05T08:07:51.017Z,40
2017-01-05T08:08:50.995Z,40
2017-01-05T08:09:50.975Z,35
2017-01-05T08:10:50.958Z,35
2017-01-05T08:11:50.934Z,40
2017-01-05T08:12:50.916Z,45
2017-01-05T08:13:50.920Z,45
2017-01-05T08:14:50.874Z,50
2017-01-05T08:15:50.858Z,45
2017-01-05T08:16:50.838Z,45
2017-01-05T08:17:50.818Z,45
2017-01-05T08:18:50.797Z,45
2017-01-05T08:19:50.775Z,50
2017-01-05T08:20:50.758Z,45
2017-01-05T08:21:50.736Z,45
2017-01-05T08:22:50.718Z,50
2017-01-05T08:23:50.695Z,45
2017-01-05T08:24:50.675Z,45
2017-01-05T08:25:50.656Z,45
2017-01-05T08:26:50.637Z,45
2017-01-05T08:27:50.641Z,45
2017-01-05T08:28:50.603Z,50
2017-01-05T08:29:50.578Z,55
2017-01-05T08:30:50.558Z,55
2017-01-05T08:31:50.536Z,55
2017-01-05T08:32:50.521Z,60
2017-01-05T08:33:50.492Z,60
2017-01-05T08:34:50.485Z,60
2017-01-05T08:35:50.466Z,60
2017-01-05T08:36:50.444Z,60
2017-01-05T08:37:50.418Z,65
2017-01-05T08:38:50.399Z,65
2017-01-05T08:39:50.771Z,75
2017-01-05T08:40:50.363Z,85
2017-01-05T08:41:50.741Z,85
2017-01-05T08:42:50.320Z,90
2017-01-05T08:43:50.292Z,100
2017-01-05T08:44:50.275Z,105
2017-01-05T08:45:50.281Z,110
2017-01-05T08:46:50.238Z,115
2017-01-05T08:47:50.224Z,120
2017-01-05T08:48:50.197Z,120
2017-01-05T08:49:50.179Z,115
2017-01-05T08:50:50.159Z,105
2017-01-05T08:51:50.140Z,100
2017-01-05T08:52:50.122Z,100
2017-01-05T08:53:50.100Z,95
2017-01-05T08:54:50.083Z,95
2017-01-05T08:55:50.064Z,90
2017-01-05T08:56:50.039Z,90
2017-01-05T08:57:50.021Z,95
2017-01-05T08:58:50.006Z,100
2017-01-05T08:59:49.986Z,110
2017-01-05T09:00:49.962Z,110
2017-01-05T09:01:49.971Z,105
2017-01-05T09:02:49.922Z,85
2017-01-05T09:03:49.937Z,85
2017-01-05T09:04:49.882Z,90
2017-01-05T09:05:49.867Z,110
2017-01-05T09:06:49.845Z,115
2017-01-05T09:07:49.828Z,115
2017-01-05T09:08:49.803Z,110
2017-01-05T09:09:49.799Z,105
2017-01-05T09:10:49.803Z,110
2017-01-05T09:11:49.745Z,110
2017-01-05T09:12:49.732Z,115
2017-01-05T09:13:49.707Z,120
2017-01-05T09:14:49.694Z,120
2017-01-05T09:15:49.670Z,120
2017-01-05T09:16:49.654Z,120
2017-01-05T09:17:49.634Z,120
2017-01-05T09:18:49.607Z,125
2017-01-05T09:19:49.590Z,120
2017-01-05T09:20:49.574Z,120
2017-01-05T09:21:49.553Z,120
2017-01-05T09:22:49.532Z,115
2017-01-05T09:23:49.514Z,120
2017-01-05T09:24:49.507Z,110
2017-01-05T09:25:49.471Z,105
2017-01-05T09:26:49.453Z,100
2017-01-05T09:27:49.437Z,105
2017-01-05T09:28:49.412Z,100
2017-01-05T09:29:49.409Z,95
2017-01-05T09:30:49.377Z,85
2017-01-05T09:31:49.361Z,85
2017-01-05T09:32:49.337Z,95
2017-01-05T09:33:49.732Z,100
2017-01-05T09:34:49.303Z,120
2017-01-05T09:35:49.280Z,125
2017-01-05T09:36:49.260Z,145
2017-01-05T09:37:49.245Z,170
2017-01-05T09:38:49.243Z,185
2017-01-05T09:39:49.201Z,170
2017-01-05T09:40:49.178Z,150
2017-01-05T09:41:49.164Z,150
2017-01-05T09:42:49.144Z,135
2017-01-05T09:43:49.125Z,145
2017-01-05T09:44:49.106Z,155
2017-01-05T09:45:49.099Z,170
2017-01-05T09:46:49.070Z,180
2017-01-05T09:47:49.049Z,175
2017-01-05T09:48:49.034Z,175
2017-01-05T09:49:49.012Z,170
2017-01-05T09:50:48.990Z,155
2017-01-05T09:51:48.974Z,135
2017-01-05T09:52:49.750Z,140
2017-01-05T09:53:48.938Z,150
2017-01-05T09:54:48.921Z,175
2017-01-05T09:55:48.897Z,175
2017-01-05T09:56:48.876Z,170
2017-01-05T09:57:48.858Z,180
2017-01-05T09:58:48.842Z,195
2017-01-05T09:59:48.818Z,155
2017-01-05T10:00:48.804Z,115
2017-01-05T10:01:48.810Z,95
2017-01-05T10:02:48.758Z,90
2017-01-05T10:03:48.750Z,90
2017-01-05T10:04:48.727Z,85
2017-01-05T10:05:48.708Z,95
2017-01-05T10:06:48.687Z,85
2017-01-05T10:07:48.666Z,80
2017-01-05T10:08:48.651Z,75
2017-01-05T10:09:48.631Z,75
2017-01-05T10:10:48.624Z,80
2017-01-05T10:11:48.597Z,80
2017-01-05T10:12:48.572Z,65
2017-01-05T10:13:48.555Z,60
2017-01-05T10:14:48.538Z,60
2017-01-05T10:15:48.517Z,60
2017-01-05T10:16:48.495Z,70
2017-01-05T10:17:48.477Z,75
2017-01-05T10:18:48.476Z,100
2017-01-05T10:19:48.441Z,100
2017-01-05T10:20:48.422Z,105
2017-01-05T10:21:48.411Z,115
2017-01-05T10:22:48.383Z,125
2017-01-05T10:23:48.358Z,130
2017-01-05T10:24:48.344Z,140
2017-01-05T10:25:48.320Z,150
2017-01-05T10:26:48.300Z,155
2017-01-05T10:27:48.280Z,160
2017-01-05T10:28:48.264Z,170
2017-01-05T10:29:48.243Z,180
2017-01-05T10:30:48.222Z,165
2017-01-05T10:31:48.199Z,155
2017-01-05T10:32:48.188Z,145
2017-01-05T10:33:48.162Z,145
2017-01-05T10:34:48.145Z,130
2017-01-05T10:35:48.130Z,120
2017-01-05T10:36:48.110Z,110
2017-01-05T10:37:48.088Z,105
2017-01-05T10:38:48.471Z,110
2017-01-05T10:39:48.072Z,120
2017-01-05T10:40:48.032Z,115
2017-01-05T10:41:48.015Z,105
2017-01-05T10:42:47.991Z,100
2017-01-05T10:43:47.981Z,95
2017-01-05T10:44:47.958Z,95
2017-01-05T10:45:47.934Z,100
2017-01-05T10:46:47.912Z,100
2017-01-05T10:47:47.902Z,110
2017-01-05T10:48:47.882Z,105
2017-01-05T10:49:47.857Z,105
2017-01-05T10:50:47.845Z,105
2017-01-05T10:51:47.818Z,120
2017-01-05T10:52:47.796Z,130
2017-01-05T10:53:47.811Z,140
2017-01-05T10:54:47.761Z,140
2017-01-05T10:55:47.772Z,135
2017-01-05T10:56:47.731Z,130
2017-01-05T10:57:47.706Z,150
2017-01-05T10:58:47.682Z,185
2017-01-05T10:59:47.661Z,175
2017-01-05T11:00:47.637Z,160
2017-01-05T11:01:47.623Z,155
2017-01-05T11:02:47.605Z,165
2017-01-05T11:03:47.607Z,170
2017-01-05T11:04:47.566Z,170
2017-01-05T11:05:47.547Z,180
2017-01-05T11:06:47.529Z,150
2017-01-05T11:07:47.511Z,150
2017-01-05T11:08:47.487Z,130
2017-01-05T11:09:47.501Z,135
2017-01-05T11:10:47.455Z,150
2017-01-05T11:11:47.430Z,150
2017-01-05T11:12:47.411Z,175
2017-01-05T11:13:47.391Z,180
2017-01-05T11:14:47.374Z,170
2017-01-05T11:15:47.361Z,175
2017-01-05T11:16:47.334Z,170
2017-01-05T11:17:47.317Z,175
2017-01-05T11:18:47.315Z,160
2017-01-05T11:19:47.277Z,170
2017-01-05T11:20:47.272Z,160
2017-01-05T11:21:47.237Z,165
2017-01-05T11:22:47.217Z,145
2017-01-05T11:23:47.596Z,130
2017-01-05T11:24:47.183Z,130
2017-01-05T11:25:47.154Z,140
2017-01-05T11:26:47.139Z,155
2017-01-05T11:27:47.117Z,155
2017-01-05T11:28:47.107Z,150
2017-01-05T11:29:47.111Z,135
2017-01-05T11:30:47.064Z,130
2017-01-05T11:31:47.044Z,135
2017-01-05T11:32:47.027Z,155
2017-01-05T11:33:47.006Z,145
2017-01-05T11:34:46.982Z,125
2017-01-05T11:35:46.967Z,110
2017-01-05T11:36:46.955Z,95
2017-01-05T11:37:46.932Z,85
2017-01-05T11:38:46.906Z,85
2017-01-05T11:39:46.883Z,90
2017-01-05T11:40:46.864Z,95
2017-01-05T11:41:46.850Z,105
2017-01-05T11:42:46.830Z,115
2017-01-05T11:43:46.807Z,130
2017-01-05T11:44:46.801Z,135
2017-01-05T11:45:46.770Z,125
2017-01-05T11:46:46.752Z,130
2017-01-05T11:47:46.730Z,135
2017-01-05T11:48:46.711Z,135
2017-01-05T11:49:46.690Z,135
2017-01-05T11:50:46.675Z,135
2017-01-05T11:51:46.651Z,140
2017-01-05T11:52:46.630Z,145
2017-01-05T11:53:46.612Z,135
2017-01-05T11:54:46.990Z,135
2017-01-05T11:55:46.577Z,130
2017-01-05T11:56:46.569Z,115
2017-01-05T11:57:46.537Z,120
2017-01-05T11:58:46.519Z,125
2017-01-05T11:59:46.500Z,120
2017-01-05T12:00:46.482Z,120
2017-01-05T12:01:46.477Z,115
2017-01-05T12:02:46.440Z,115
2017-01-05T12:03:46.416Z,105
2017-01-05T12:04:46.397Z,115
2017-01-05T12:05:46.388Z,120
2017-01-05T12:06:46.389Z,115
2017-01-05T12:07:46.340Z,115
2017-01-05T12:08:46.733Z,120
2017-01-05T12:09:46.320Z,120
2017-01-05T12:10:46.278Z,105
2017-01-05T12:11:46.262Z,110
2017-01-05T12:12:46.243Z,110
2017-01-05T12:13:46.229Z,110
2017-01-05T12:14:46.204Z,120
2017-01-05T12:15:46.184Z,125
2017-01-05T12:16:46.163Z,120
2017-01-05T12:17:46.144Z,120
2017-01-05T12:18:46.129Z,120
2017-01-05T12:19:46.104Z,125
2017-01-05T12:20:46.079Z,115
2017-01-05T12:21:46.064Z,115
2017-01-05T12:22:46.045Z,115
2017-01-05T12:23:46.023Z,115
2017-01-05T12:24:46.009Z,105
2017-01-05T12:25:45.987Z,105
2017-01-05T12:26:45.972Z,105
2017-01-05T12:27:45.943Z,110
2017-01-05T12:28:45.932Z,105
2017-01-05T12:29:45.909Z,105
2017-01-05T12:30:45.892Z,105
2017-01-05T12:31:45.876Z,105
2017-01-05T12:33:45.869Z,100
2017-01-05T12:34:45.851Z,105
2017-01-05T12:35:45.841Z,100
2017-01-05T12:36:45.813Z,90
2017-01-05T12:37:45.794Z,80
2017-01-05T12:38:45.786Z,80
2017-01-05T12:39:45.757Z,90
2017-01-05T12:40:45.733Z,90
2017-01-05T12:41:45.722Z,105
2017-01-05T12:42:45.696Z,105
2017-01-05T12:43:45.678Z,90
2017-01-05T12:44:45.659Z,85
2017-01-05T12:45:45.638Z,100
2017-01-05T12:46:45.622Z,115
2017-01-05T12:47:45.603Z,125
2017-01-05T12:48:45.578Z,125
2017-01-05T12:49:45.555Z,120
2017-01-05T12:50:45.538Z,120
2017-01-05T12:51:45.516Z,120
2017-01-05T12:52:45.502Z,125
2017-01-05T12:53:45.475Z,120
2017-01-05T12:54:45.458Z,115
2017-01-05T12:55:45.436Z,130
2017-01-05T12:56:45.423Z,120
2017-01-05T12:57:45.402Z,115
2017-01-05T12:58:45.378Z,115
2017-01-05T12:59:45.363Z,110
2017-01-05T13:00:45.342Z,105
2017-01-05T13:01:45.327Z,110
2017-01-05T13:02:45.303Z,105
2017-01-05T13:03:45.286Z,125
2017-01-05T13:04:45.261Z,120
2017-01-05T13:05:45.242Z,115
2017-01-05T13:06:45.222Z,120
2017-01-05T13:07:45.207Z,120
2017-01-05T13:08:45.185Z,135
2017-01-05T13:09:45.161Z,135
2017-01-05T13:10:45.143Z,115
2017-01-05T13:11:45.128Z,125
2017-01-05T13:12:45.114Z,120
2017-01-05T13:13:45.083Z,115
2017-01-05T13:14:45.098Z,115
2017-01-05T13:15:45.046Z,125
2017-01-05T13:16:45.035Z,145
2017-01-05T13:17:45.008Z,160
2017-01-05T13:18:44.985Z,150
2017-01-05T13:19:44.968Z,140
2017-01-05T13:20:45.742Z,150
2017-01-05T13:21:44.927Z,155
2017-01-05T13:22:44.906Z,150
2017-01-05T13:23:44.892Z,150
2017-01-05T13:24:44.865Z,155
2017-01-05T13:25:44.849Z,150
2017-01-05T13:26:44.827Z,145
2017-01-05T13:27:44.806Z,125
2017-01-05T13:28:44.788Z,115
2017-01-05T13:29:44.773Z,115
2017-01-05T13:30:44.749Z,90
2017-01-05T13:31:44.734Z,90
2017-01-05T13:32:44.713Z,85
2017-01-05T13:33:44.687Z,90
2017-01-05T13:34:44.671Z,95
2017-01-05T13:35:44.653Z,100
2017-01-05T13:36:44.630Z,110
2017-01-05T13:37:44.612Z,110
2017-01-05T13:38:44.600Z,110
2017-01-05T13:39:44.575Z,115
2017-01-05T13:40:44.560Z,105
2017-01-05T13:41:44.538Z,100
2017-01-05T13:42:44.512Z,95
2017-01-05T13:43:44.501Z,100
2017-01-05T13:44:44.477Z,90
2017-01-05T13:45:44.455Z,85
2017-01-05T13:46:44.458Z,75
2017-01-05T13:47:44.415Z,70
2017-01-05T13:48:44.400Z,70
2017-01-05T13:49:44.380Z,70
2017-01-05T13:50:44.374Z,70
2017-01-05T13:51:44.373Z,70
2017-01-05T13:52:44.319Z,70
2017-01-05T13:53:44.295Z,70
2017-01-05T13:54:44.281Z,70
2017-01-05T13:55:44.254Z,70
2017-01-05T13:56:44.238Z,65
2017-01-05T13:57:44.216Z,65
2017-01-05T13:58:44.202Z,65
2017-01-05T13:59:44.208Z,70
2017-01-05T14:00:44.159Z,65
2017-01-05T14:01:44.139Z,65
2017-01-05T14:02:44.115Z,65
2017-01-05T14:03:44.103Z,75
2017-01-05T14:04:44.081Z,75
2017-01-05T14:05:44.056Z,70
2017-01-05T14:06:44.033Z,65
2017-01-05T14:07:44.016Z,65
2017-01-05T14:08:43.992Z,60
2017-01-05T14:09:43.971Z,55
2017-01-05T14:10:43.954Z,60
2017-01-05T14:11:43.930Z,65
2017-01-05T14:12:43.914Z,75
2017-01-05T14:13:43.887Z,70
2017-01-05T14:14:43.871Z,65
2017-01-05T14:15:43.852Z,70
2017-01-05T14:16:43.833Z,75
2017-01-05T14:17:43.809Z,70
2017-01-05T14:18:43.790Z,75
2017-01-05T14:19:43.774Z,80
2017-01-05T14:20:43.756Z,80
2017-01-05T14:21:43.731Z,65
2017-01-05T14:22:43.711Z,50